sensor_id;sensor_type;location;lat;lon;timestamp;temperature;humidity
13472;DHT22;6808;49.444;11.034;2023-07-28T00:02:07;17.00;99.90
13472;DHT22;6808;49.444;11.034;2023-07-28T00:04:34;17.00;99.90
13472;DHT22;6808;49.444;11.034;2023-07-28T00:07:00;17.00;99.90
13472;DHT22;6808;49.444;11.034;2023-07-28T00:09:25;17.30;99.90
13472;DHT22;6808;49.444;11.034;2023-07-28T00:11:51;17.20;99.90
13472;DHT22;6808;49.444;11.034;2023-07-28T00:14:17;17.00;99.90
13472;DHT22;6808;49.444;11.034;2023-07-28T00:16:42;17.30;99.90
13472;DHT22;6808;49.444;11.034;2023-07-28T00:19:08;17.00;99.90
13472;DHT22;6808;49.444;11.034;2023-07-28T00:21:34;17.60;99.90
13472;DHT22;6808;49.444;11.034;2023-07-28T00:23:59;17.00;99.90
13472;DHT22;6808;49.444;11.034;2023-07-28T00:26:25;17.80;99.90
13472;DHT22;6808;49.444;11.034;2023-07-28T00:28:50;17.40;99.90
13472;DHT22;6808;49.444;11.034;2023-07-28T00:31:16;17.00;99.90
13472;DHT22;6808;49.444;11.034;2023-07-28T00:33:41;17.00;99.90
13472;DHT22;6808;49.444;11.034;2023-07-28T00:36:07;17.50;99.90
13472;DHT22;6808;49.444;11.034;2023-07-28T00:38:33;17.40;99.90
13472;DHT22;6808;49.444;11.034;2023-07-28T00:40:58;17.10;99.90
13472;DHT22;6808;49.444;11.034;2023-07-28T00:43:24;17.10;99.90
13472;DHT22;6808;49.444;11.034;2023-07-28T00:45:50;17.00;99.90
13472;DHT22;6808;49.444;11.034;2023-07-28T00:48:17;17.10;99.90
13472;DHT22;6808;49.444;11.034;2023-07-28T00:50:45;17.10;99.90
13472;DHT22;6808;49.444;11.034;2023-07-28T00:53:12;17.00;99.90
13472;DHT22;6808;49.444;11.034;2023-07-28T00:55:38;17.40;99.90
13472;DHT22;6808;49.444;11.034;2023-07-28T00:58:03;17.00;99.90
13472;DHT22;6808;49.444;11.034;2023-07-28T01:00:29;17.00;99.90
13472;DHT22;6808;49.444;11.034;2023-07-28T01:02:55;17.00;99.90
13472;DHT22;6808;49.444;11.034;2023-07-28T01:05:24;17.00;99.90
13472;DHT22;6808;49.444;11.034;2023-07-28T01:10:26;17.10;99.90
13472;DHT22;6808;49.444;11.034;2023-07-28T01:12:53;17.40;99.90
13472;DHT22;6808;49.444;11.034;2023-07-28T01:15:19;17.00;99.90
13472;DHT22;6808;49.444;11.034;2023-07-28T01:17:45;17.00;99.90
13472;DHT22;6808;49.444;11.034;2023-07-28T01:20:11;17.00;99.90
13472;DHT22;6808;49.444;11.034;2023-07-28T01:25:28;17.00;99.90
13472;DHT22;6808;49.444;11.034;2023-07-28T01:27:58;17.00;99.90
13472;DHT22;6808;49.444;11.034;2023-07-28T01:30:26;17.00;99.90
13472;DHT22;6808;49.444;11.034;2023-07-28T01:32:56;17.00;99.90
13472;DHT22;6808;49.444;11.034;2023-07-28T01:35:22;17.00;99.90
13472;DHT22;6808;49.444;11.034;2023-07-28T01:37:48;17.00;99.90
13472;DHT22;6808;49.444;11.034;2023-07-28T01:40:17;17.00;99.90
13472;DHT22;6808;49.444;11.034;2023-07-28T01:42:43;17.00;99.90
13472;DHT22;6808;49.444;11.034;2023-07-28T01:45:08;17.00;99.90
13472;DHT22;6808;49.444;11.034;2023-07-28T01:47:34;17.00;99.90
13472;DHT22;6808;49.444;11.034;2023-07-28T01:50:00;17.00;99.90
13472;DHT22;6808;49.444;11.034;2023-07-28T01:52:25;17.00;99.90
13472;DHT22;6808;49.444;11.034;2023-07-28T01:54:51;17.00;99.90
13472;DHT22;6808;49.444;11.034;2023-07-28T01:57:17;17.00;99.90
13472;DHT22;6808;49.444;11.034;2023-07-28T01:59:42;17.00;99.90
13472;DHT22;6808;49.444;11.034;2023-07-28T02:02:09;17.00;99.90
13472;DHT22;6808;49.444;11.034;2023-07-28T02:04:35;17.00;99.90
13472;DHT22;6808;49.444;11.034;2023-07-28T02:07:00;17.00;99.90
13472;DHT22;6808;49.444;11.034;2023-07-28T02:09:26;17.00;99.90
13472;DHT22;6808;49.444;11.034;2023-07-28T02:11:52;16.20;99.90
13472;DHT22;6808;49.444;11.034;2023-07-28T02:14:17;17.00;99.90
13472;DHT22;6808;49.444;11.034;2023-07-28T02:16:43;17.00;99.90
13472;DHT22;6808;49.444;11.034;2023-07-28T02:19:08;17.00;99.90
13472;DHT22;6808;49.444;11.034;2023-07-28T02:21:34;16.90;99.90
13472;DHT22;6808;49.444;11.034;2023-07-28T02:24:00;17.00;99.90
13472;DHT22;6808;49.444;11.034;2023-07-28T02:26:25;17.00;99.90
13472;DHT22;6808;49.444;11.034;2023-07-28T02:28:51;17.00;99.90
13472;DHT22;6808;49.444;11.034;2023-07-28T02:31:16;17.00;99.90
13472;DHT22;6808;49.444;11.034;2023-07-28T02:33:42;17.00;99.90
13472;DHT22;6808;49.444;11.034;2023-07-28T02:36:08;17.00;99.90
13472;DHT22;6808;49.444;11.034;2023-07-28T02:38:33;17.00;99.90
13472;DHT22;6808;49.444;11.034;2023-07-28T02:40:59;17.00;99.90
13472;DHT22;6808;49.444;11.034;2023-07-28T02:43:24;17.00;99.90
13472;DHT22;6808;49.444;11.034;2023-07-28T02:45:54;17.00;99.90
13472;DHT22;6808;49.444;11.034;2023-07-28T02:48:20;17.00;99.90
13472;DHT22;6808;49.444;11.034;2023-07-28T02:50:47;17.00;99.90
13472;DHT22;6808;49.444;11.034;2023-07-28T02:53:16;17.00;99.90
13472;DHT22;6808;49.444;11.034;2023-07-28T02:55:45;17.00;99.90
13472;DHT22;6808;49.444;11.034;2023-07-28T02:58:12;17.00;99.90
13472;DHT22;6808;49.444;11.034;2023-07-28T03:00:38;17.00;99.90
13472;DHT22;6808;49.444;11.034;2023-07-28T03:03:05;17.00;99.90
13472;DHT22;6808;49.444;11.034;2023-07-28T03:05:33;17.00;99.90
13472;DHT22;6808;49.444;11.034;2023-07-28T03:07:59;17.00;99.90
13472;DHT22;6808;49.444;11.034;2023-07-28T03:10:25;17.00;99.90
13472;DHT22;6808;49.444;11.034;2023-07-28T03:12:50;17.00;99.90
13472;DHT22;6808;49.444;11.034;2023-07-28T03:15:16;17.00;99.90
13472;DHT22;6808;49.444;11.034;2023-07-28T03:17:41;17.10;99.90
13472;DHT22;6808;49.444;11.034;2023-07-28T03:20:07;17.00;99.90
13472;DHT22;6808;49.444;11.034;2023-07-28T03:22:33;17.00;99.90
13472;DHT22;6808;49.444;11.034;2023-07-28T03:24:59;17.40;99.90
13472;DHT22;6808;49.444;11.034;2023-07-28T03:27:24;17.00;99.90
13472;DHT22;6808;49.444;11.034;2023-07-28T03:29:50;17.00;99.90
13472;DHT22;6808;49.444;11.034;2023-07-28T03:32:16;17.00;99.90
13472;DHT22;6808;49.444;11.034;2023-07-28T03:34:41;17.00;99.90
13472;DHT22;6808;49.444;11.034;2023-07-28T03:37:07;17.00;99.90
13472;DHT22;6808;49.444;11.034;2023-07-28T03:39:33;17.00;99.90
13472;DHT22;6808;49.444;11.034;2023-07-28T03:41:58;17.00;99.90
13472;DHT22;6808;49.444;11.034;2023-07-28T03:44:24;17.00;99.90
13472;DHT22;6808;49.444;11.034;2023-07-28T03:46:49;17.00;99.90
13472;DHT22;6808;49.444;11.034;2023-07-28T03:49:15;17.10;99.90
13472;DHT22;6808;49.444;11.034;2023-07-28T03:51:40;17.10;99.90
13472;DHT22;6808;49.444;11.034;2023-07-28T03:54:06;17.10;99.90
13472;DHT22;6808;49.444;11.034;2023-07-28T03:56:31;17.00;99.90
13472;DHT22;6808;49.444;11.034;2023-07-28T03:58:57;17.00;99.90
13472;DHT22;6808;49.444;11.034;2023-07-28T04:01:22;17.00;99.90
13472;DHT22;6808;49.444;11.034;2023-07-28T04:03:49;17.10;99.90
13472;DHT22;6808;49.444;11.034;2023-07-28T04:06:15;17.10;99.90
13472;DHT22;6808;49.444;11.034;2023-07-28T04:08:41;17.10;99.90
13472;DHT22;6808;49.444;11.034;2023-07-28T04:11:07;17.10;99.90
13472;DHT22;6808;49.444;11.034;2023-07-28T04:13:36;17.10;99.90
13472;DHT22;6808;49.444;11.034;2023-07-28T04:16:01;17.10;99.90
13472;DHT22;6808;49.444;11.034;2023-07-28T04:18:27;17.10;99.90
13472;DHT22;6808;49.444;11.034;2023-07-28T04:20:53;17.10;99.90
13472;DHT22;6808;49.444;11.034;2023-07-28T04:23:18;17.10;99.90
13472;DHT22;6808;49.444;11.034;2023-07-28T04:25:44;17.10;99.90
13472;DHT22;6808;49.444;11.034;2023-07-28T04:28:09;17.10;99.90
13472;DHT22;6808;49.444;11.034;2023-07-28T04:30:35;17.10;99.90
13472;DHT22;6808;49.444;11.034;2023-07-28T04:33:01;17.10;99.90
13472;DHT22;6808;49.444;11.034;2023-07-28T04:35:26;17.10;99.90
13472;DHT22;6808;49.444;11.034;2023-07-28T04:37:52;17.10;99.90
13472;DHT22;6808;49.444;11.034;2023-07-28T04:40:18;17.20;99.90
13472;DHT22;6808;49.444;11.034;2023-07-28T04:42:44;17.20;99.90
13472;DHT22;6808;49.444;11.034;2023-07-28T04:45:10;17.20;99.90
13472;DHT22;6808;49.444;11.034;2023-07-28T04:47:35;17.20;99.90
13472;DHT22;6808;49.444;11.034;2023-07-28T04:50:01;17.20;99.90
13472;DHT22;6808;49.444;11.034;2023-07-28T04:52:26;17.20;99.90
13472;DHT22;6808;49.444;11.034;2023-07-28T04:54:52;17.20;99.90
13472;DHT22;6808;49.444;11.034;2023-07-28T04:57:18;17.20;99.90
13472;DHT22;6808;49.444;11.034;2023-07-28T04:59:44;17.20;99.90
13472;DHT22;6808;49.444;11.034;2023-07-28T05:02:10;17.20;99.90
13472;DHT22;6808;49.444;11.034;2023-07-28T05:04:36;17.20;99.90
13472;DHT22;6808;49.444;11.034;2023-07-28T05:07:03;17.20;99.90
13472;DHT22;6808;49.444;11.034;2023-07-28T05:09:28;17.20;99.90
13472;DHT22;6808;49.444;11.034;2023-07-28T05:11:54;17.30;99.90
13472;DHT22;6808;49.444;11.034;2023-07-28T05:14:20;17.20;99.90
13472;DHT22;6808;49.444;11.034;2023-07-28T05:16:46;17.30;99.90
13472;DHT22;6808;49.444;11.034;2023-07-28T05:19:12;17.30;99.90
13472;DHT22;6808;49.444;11.034;2023-07-28T05:21:38;17.30;99.90
13472;DHT22;6808;49.444;11.034;2023-07-28T05:24:04;17.30;99.90
13472;DHT22;6808;49.444;11.034;2023-07-28T05:26:30;17.30;99.90
13472;DHT22;6808;49.444;11.034;2023-07-28T05:28:55;17.60;99.90
13472;DHT22;6808;49.444;11.034;2023-07-28T05:31:21;17.30;99.90
13472;DHT22;6808;49.444;11.034;2023-07-28T05:33:46;17.30;99.90
13472;DHT22;6808;49.444;11.034;2023-07-28T05:36:12;17.20;99.90
13472;DHT22;6808;49.444;11.034;2023-07-28T05:38:37;17.20;99.90
13472;DHT22;6808;49.444;11.034;2023-07-28T05:41:04;17.30;99.90
13472;DHT22;6808;49.444;11.034;2023-07-28T05:43:30;17.30;99.90
13472;DHT22;6808;49.444;11.034;2023-07-28T05:45:59;17.30;99.90
13472;DHT22;6808;49.444;11.034;2023-07-28T05:48:25;17.30;99.90
13472;DHT22;6808;49.444;11.034;2023-07-28T05:50:51;17.30;99.90
13472;DHT22;6808;49.444;11.034;2023-07-28T05:53:21;17.30;99.90
13472;DHT22;6808;49.444;11.034;2023-07-28T05:55:47;17.30;99.90
13472;DHT22;6808;49.444;11.034;2023-07-28T05:58:14;17.30;99.90
13472;DHT22;6808;49.444;11.034;2023-07-28T06:00:40;17.30;99.90
13472;DHT22;6808;49.444;11.034;2023-07-28T06:03:07;17.30;99.90
13472;DHT22;6808;49.444;11.034;2023-07-28T06:05:32;17.30;99.90
13472;DHT22;6808;49.444;11.034;2023-07-28T06:07:58;17.30;99.90
13472;DHT22;6808;49.444;11.034;2023-07-28T06:10:23;17.40;99.90
13472;DHT22;6808;49.444;11.034;2023-07-28T06:12:49;17.40;99.90
13472;DHT22;6808;49.444;11.034;2023-07-28T06:15:14;17.40;99.90
13472;DHT22;6808;49.444;11.034;2023-07-28T06:17:40;17.40;99.90
13472;DHT22;6808;49.444;11.034;2023-07-28T06:20:06;17.50;99.90
13472;DHT22;6808;49.444;11.034;2023-07-28T06:22:32;17.50;99.90
13472;DHT22;6808;49.444;11.034;2023-07-28T06:24:57;17.50;99.90
13472;DHT22;6808;49.444;11.034;2023-07-28T06:27:23;17.60;99.90
13472;DHT22;6808;49.444;11.034;2023-07-28T06:29:48;17.60;99.90
13472;DHT22;6808;49.444;11.034;2023-07-28T06:32:14;18.20;99.90
13472;DHT22;6808;49.444;11.034;2023-07-28T06:34:39;17.70;99.90
13472;DHT22;6808;49.444;11.034;2023-07-28T06:37:05;17.70;99.90
13472;DHT22;6808;49.444;11.034;2023-07-28T06:39:31;17.70;99.90
13472;DHT22;6808;49.444;11.034;2023-07-28T06:41:56;17.70;99.90
13472;DHT22;6808;49.444;11.034;2023-07-28T06:44:22;17.70;99.90
13472;DHT22;6808;49.444;11.034;2023-07-28T06:46:47;17.70;99.90
13472;DHT22;6808;49.444;11.034;2023-07-28T06:49:13;17.70;99.90
13472;DHT22;6808;49.444;11.034;2023-07-28T06:51:38;17.70;99.90
13472;DHT22;6808;49.444;11.034;2023-07-28T06:54:04;17.70;99.90
13472;DHT22;6808;49.444;11.034;2023-07-28T06:56:30;17.70;99.90
13472;DHT22;6808;49.444;11.034;2023-07-28T06:58:55;17.80;99.90
13472;DHT22;6808;49.444;11.034;2023-07-28T07:01:21;17.70;99.90
13472;DHT22;6808;49.444;11.034;2023-07-28T07:03:47;17.70;99.90
13472;DHT22;6808;49.444;11.034;2023-07-28T07:06:13;17.70;99.90
13472;DHT22;6808;49.444;11.034;2023-07-28T07:08:38;17.70;99.90
13472;DHT22;6808;49.444;11.034;2023-07-28T07:11:04;17.80;99.90
13472;DHT22;6808;49.444;11.034;2023-07-28T07:13:31;17.60;99.90
13472;DHT22;6808;49.444;11.034;2023-07-28T07:15:57;17.70;99.90
13472;DHT22;6808;49.444;11.034;2023-07-28T07:18:22;17.70;99.90
13472;DHT22;6808;49.444;11.034;2023-07-28T07:20:48;17.70;99.90
13472;DHT22;6808;49.444;11.034;2023-07-28T07:23:14;17.70;99.90
13472;DHT22;6808;49.444;11.034;2023-07-28T07:25:39;17.80;99.90
13472;DHT22;6808;49.444;11.034;2023-07-28T07:28:05;17.80;99.90
13472;DHT22;6808;49.444;11.034;2023-07-28T07:30:34;17.90;99.90
13472;DHT22;6808;49.444;11.034;2023-07-28T07:33:00;17.90;99.90
13472;DHT22;6808;49.444;11.034;2023-07-28T07:35:26;18.00;99.90
13472;DHT22;6808;49.444;11.034;2023-07-28T07:37:51;18.00;99.90
13472;DHT22;6808;49.444;11.034;2023-07-28T07:40:17;18.00;99.90
13472;DHT22;6808;49.444;11.034;2023-07-28T07:42:47;18.00;99.90
13472;DHT22;6808;49.444;11.034;2023-07-28T07:45:14;18.10;99.90
13472;DHT22;6808;49.444;11.034;2023-07-28T07:47:41;18.00;99.90
13472;DHT22;6808;49.444;11.034;2023-07-28T07:50:07;18.00;99.90
13472;DHT22;6808;49.444;11.034;2023-07-28T07:52:37;18.00;99.90
13472;DHT22;6808;49.444;11.034;2023-07-28T07:55:03;18.10;99.90
13472;DHT22;6808;49.444;11.034;2023-07-28T07:57:29;18.10;99.90
13472;DHT22;6808;49.444;11.034;2023-07-28T07:59:57;18.20;99.90
13472;DHT22;6808;49.444;11.034;2023-07-28T08:02:23;18.30;99.90
13472;DHT22;6808;49.444;11.034;2023-07-28T08:04:49;18.30;99.90
13472;DHT22;6808;49.444;11.034;2023-07-28T08:07:15;18.70;99.90
13472;DHT22;6808;49.444;11.034;2023-07-28T08:09:41;18.50;99.90
13472;DHT22;6808;49.444;11.034;2023-07-28T08:12:08;18.60;99.90
13472;DHT22;6808;49.444;11.034;2023-07-28T08:14:34;18.70;99.90
13472;DHT22;6808;49.444;11.034;2023-07-28T08:16:59;18.80;99.90
13472;DHT22;6808;49.444;11.034;2023-07-28T08:19:25;18.80;99.90
13472;DHT22;6808;49.444;11.034;2023-07-28T08:21:51;18.90;99.90
13472;DHT22;6808;49.444;11.034;2023-07-28T08:24:17;19.30;99.90
13472;DHT22;6808;49.444;11.034;2023-07-28T08:26:47;18.90;99.90
13472;DHT22;6808;49.444;11.034;2023-07-28T08:29:14;19.00;99.90
13472;DHT22;6808;49.444;11.034;2023-07-28T08:31:42;19.10;99.90
13472;DHT22;6808;49.444;11.034;2023-07-28T08:34:08;19.10;99.90
13472;DHT22;6808;49.444;11.034;2023-07-28T08:36:34;19.20;99.90
13472;DHT22;6808;49.444;11.034;2023-07-28T08:38:59;19.30;99.90
13472;DHT22;6808;49.444;11.034;2023-07-28T08:41:25;19.40;99.90
13472;DHT22;6808;49.444;11.034;2023-07-28T08:43:52;19.40;99.90
13472;DHT22;6808;49.444;11.034;2023-07-28T08:46:20;20.40;99.90
13472;DHT22;6808;49.444;11.034;2023-07-28T08:48:45;19.40;99.90
13472;DHT22;6808;49.444;11.034;2023-07-28T08:51:12;19.40;99.90
13472;DHT22;6808;49.444;11.034;2023-07-28T08:53:38;19.40;99.90
13472;DHT22;6808;49.444;11.034;2023-07-28T08:56:05;19.50;99.90
13472;DHT22;6808;49.444;11.034;2023-07-28T08:58:30;20.10;99.90
13472;DHT22;6808;49.444;11.034;2023-07-28T09:00:56;19.50;99.90
13472;DHT22;6808;49.444;11.034;2023-07-28T09:03:26;19.50;99.90
13472;DHT22;6808;49.444;11.034;2023-07-28T09:05:59;19.50;99.90
13472;DHT22;6808;49.444;11.034;2023-07-28T09:08:25;19.50;99.90
13472;DHT22;6808;49.444;11.034;2023-07-28T09:10:51;19.60;99.90
13472;DHT22;6808;49.444;11.034;2023-07-28T09:13:17;19.60;99.90
13472;DHT22;6808;49.444;11.034;2023-07-28T09:15:44;19.70;99.90
13472;DHT22;6808;49.444;11.034;2023-07-28T09:18:10;19.70;99.90
13472;DHT22;6808;49.444;11.034;2023-07-28T09:20:38;19.70;99.90
13472;DHT22;6808;49.444;11.034;2023-07-28T09:23:05;19.80;99.90
13472;DHT22;6808;49.444;11.034;2023-07-28T09:25:31;19.80;99.90
13472;DHT22;6808;49.444;11.034;2023-07-28T09:27:57;19.80;99.90
13472;DHT22;6808;49.444;11.034;2023-07-28T09:30:24;19.80;99.90
13472;DHT22;6808;49.444;11.034;2023-07-28T09:32:54;20.00;99.90
13472;DHT22;6808;49.444;11.034;2023-07-28T09:35:21;19.80;99.90
13472;DHT22;6808;49.444;11.034;2023-07-28T09:37:49;20.50;99.90
13472;DHT22;6808;49.444;11.034;2023-07-28T09:40:20;19.80;99.90
13472;DHT22;6808;49.444;11.034;2023-07-28T09:42:47;19.80;99.90
13472;DHT22;6808;49.444;11.034;2023-07-28T09:45:17;19.80;99.90
13472;DHT22;6808;49.444;11.034;2023-07-28T09:47:47;19.80;99.90
13472;DHT22;6808;49.444;11.034;2023-07-28T09:50:17;19.80;99.90
13472;DHT22;6808;49.444;11.034;2023-07-28T09:52:46;19.80;99.90
13472;DHT22;6808;49.444;11.034;2023-07-28T09:55:12;20.30;99.90
13472;DHT22;6808;49.444;11.034;2023-07-28T09:58:00;20.00;99.90
13472;DHT22;6808;49.444;11.034;2023-07-28T10:00:29;20.50;99.90
13472;DHT22;6808;49.444;11.034;2023-07-28T10:02:56;20.10;99.90
13472;DHT22;6808;49.444;11.034;2023-07-28T10:05:24;20.20;99.90
13472;DHT22;6808;49.444;11.034;2023-07-28T10:07:50;20.30;99.90
13472;DHT22;6808;49.444;11.034;2023-07-28T10:10:18;20.30;99.90
13472;DHT22;6808;49.444;11.034;2023-07-28T10:12:50;20.30;99.90
13472;DHT22;6808;49.444;11.034;2023-07-28T10:15:20;20.30;99.90
13472;DHT22;6808;49.444;11.034;2023-07-28T10:17:48;21.10;99.90
13472;DHT22;6808;49.444;11.034;2023-07-28T10:20:36;20.10;99.90
13472;DHT22;6808;49.444;11.034;2023-07-28T10:23:13;20.00;99.90
13472;DHT22;6808;49.444;11.034;2023-07-28T10:25:40;20.00;99.90
13472;DHT22;6808;49.444;11.034;2023-07-28T10:28:24;19.90;99.90
13472;DHT22;6808;49.444;11.034;2023-07-28T10:30:54;19.90;99.90
13472;DHT22;6808;49.444;11.034;2023-07-28T10:33:37;19.90;99.90
13472;DHT22;6808;49.444;11.034;2023-07-28T10:36:36;20.00;99.90
13472;DHT22;6808;49.444;11.034;2023-07-28T10:39:16;20.00;99.90
13472;DHT22;6808;49.444;11.034;2023-07-28T10:44:28;20.20;99.90
13472;DHT22;6808;49.444;11.034;2023-07-28T10:46:56;20.30;99.90
13472;DHT22;6808;49.444;11.034;2023-07-28T10:49:24;20.40;99.90
13472;DHT22;6808;49.444;11.034;2023-07-28T10:51:50;20.50;99.90
13472;DHT22;6808;49.444;11.034;2023-07-28T10:54:16;20.70;99.90
13472;DHT22;6808;49.444;11.034;2023-07-28T10:56:48;21.00;99.90
13472;DHT22;6808;49.444;11.034;2023-07-28T10:59:16;21.10;99.90
13472;DHT22;6808;49.444;11.034;2023-07-28T11:01:42;21.20;99.90
13472;DHT22;6808;49.444;11.034;2023-07-28T11:04:15;21.80;99.90
13472;DHT22;6808;49.444;11.034;2023-07-28T11:06:43;22.30;99.90
13472;DHT22;6808;49.444;11.034;2023-07-28T11:09:10;21.80;99.90
13472;DHT22;6808;49.444;11.034;2023-07-28T11:11:37;22.50;99.90
13472;DHT22;6808;49.444;11.034;2023-07-28T11:14:05;21.90;99.90
13472;DHT22;6808;49.444;11.034;2023-07-28T11:16:35;22.00;99.90
13472;DHT22;6808;49.444;11.034;2023-07-28T11:19:02;22.00;99.90
13472;DHT22;6808;49.444;11.034;2023-07-28T11:21:28;22.30;99.90
13472;DHT22;6808;49.444;11.034;2023-07-28T11:23:54;22.20;99.90
13472;DHT22;6808;49.444;11.034;2023-07-28T11:26:21;22.80;99.90
13472;DHT22;6808;49.444;11.034;2023-07-28T11:28:47;22.20;99.90
13472;DHT22;6808;49.444;11.034;2023-07-28T11:31:13;22.20;99.90
13472;DHT22;6808;49.444;11.034;2023-07-28T11:33:41;22.10;99.90
13472;DHT22;6808;49.444;11.034;2023-07-28T11:36:06;22.70;99.90
13472;DHT22;6808;49.444;11.034;2023-07-28T11:38:33;22.40;99.90
13472;DHT22;6808;49.444;11.034;2023-07-28T11:41:00;22.10;99.90
13472;DHT22;6808;49.444;11.034;2023-07-28T11:43:27;22.00;99.90
13472;DHT22;6808;49.444;11.034;2023-07-28T11:45:53;22.00;99.90
13472;DHT22;6808;49.444;11.034;2023-07-28T11:48:18;22.10;99.90
13472;DHT22;6808;49.444;11.034;2023-07-28T11:50:44;22.40;99.90
13472;DHT22;6808;49.444;11.034;2023-07-28T11:53:10;23.00;99.90
13472;DHT22;6808;49.444;11.034;2023-07-28T11:55:37;22.80;99.90
13472;DHT22;6808;49.444;11.034;2023-07-28T11:58:05;23.30;99.90
13472;DHT22;6808;49.444;11.034;2023-07-28T12:00:32;23.20;99.90
13472;DHT22;6808;49.444;11.034;2023-07-28T12:03:11;23.10;99.90
13472;DHT22;6808;49.444;11.034;2023-07-28T12:05:40;23.10;99.90
13472;DHT22;6808;49.444;11.034;2023-07-28T12:08:06;23.00;99.90
13472;DHT22;6808;49.444;11.034;2023-07-28T12:10:37;22.70;99.90
13472;DHT22;6808;49.444;11.034;2023-07-28T12:13:05;22.90;99.90
13472;DHT22;6808;49.444;11.034;2023-07-28T12:15:31;22.60;99.90
13472;DHT22;6808;49.444;11.034;2023-07-28T12:20:42;23.10;99.90
13472;DHT22;6808;49.444;11.034;2023-07-28T12:23:13;23.00;99.90
13472;DHT22;6808;49.444;11.034;2023-07-28T12:25:39;23.50;99.90
13472;DHT22;6808;49.444;11.034;2023-07-28T12:28:05;23.60;99.90
13472;DHT22;6808;49.444;11.034;2023-07-28T12:30:32;23.90;99.90
13472;DHT22;6808;49.444;11.034;2023-07-28T12:32:57;23.70;99.90
13472;DHT22;6808;49.444;11.034;2023-07-28T12:35:24;23.50;99.90
13472;DHT22;6808;49.444;11.034;2023-07-28T12:37:50;23.40;99.90
13472;DHT22;6808;49.444;11.034;2023-07-28T12:40:18;22.90;99.90
13472;DHT22;6808;49.444;11.034;2023-07-28T12:42:47;22.70;99.90
13472;DHT22;6808;49.444;11.034;2023-07-28T12:45:14;22.50;99.90
13472;DHT22;6808;49.444;11.034;2023-07-28T12:47:42;22.40;99.90
13472;DHT22;6808;49.444;11.034;2023-07-28T12:50:08;22.40;99.90
13472;DHT22;6808;49.444;11.034;2023-07-28T12:52:33;22.60;99.90
13472;DHT22;6808;49.444;11.034;2023-07-28T12:54:59;22.60;99.90
13472;DHT22;6808;49.444;11.034;2023-07-28T12:57:24;22.60;99.90
13472;DHT22;6808;49.444;11.034;2023-07-28T12:59:50;22.80;99.90
13472;DHT22;6808;49.444;11.034;2023-07-28T13:02:17;22.90;99.90
13472;DHT22;6808;49.444;11.034;2023-07-28T13:04:43;23.00;99.90
13472;DHT22;6808;49.444;11.034;2023-07-28T13:07:09;23.70;99.90
13472;DHT22;6808;49.444;11.034;2023-07-28T13:09:34;23.40;99.90
13472;DHT22;6808;49.444;11.034;2023-07-28T13:12:00;23.10;99.90
13472;DHT22;6808;49.444;11.034;2023-07-28T13:14:27;23.00;99.90
13472;DHT22;6808;49.444;11.034;2023-07-28T13:16:52;23.20;99.90
13472;DHT22;6808;49.444;11.034;2023-07-28T13:19:19;22.80;99.90
13472;DHT22;6808;49.444;11.034;2023-07-28T13:21:44;23.30;99.90
13472;DHT22;6808;49.444;11.034;2023-07-28T13:24:10;22.80;99.90
13472;DHT22;6808;49.444;11.034;2023-07-28T13:26:35;22.80;99.90
13472;DHT22;6808;49.444;11.034;2023-07-28T13:29:01;23.20;99.90
13472;DHT22;6808;49.444;11.034;2023-07-28T13:31:32;24.00;99.90
13472;DHT22;6808;49.444;11.034;2023-07-28T13:33:58;23.00;99.90
13472;DHT22;6808;49.444;11.034;2023-07-28T13:36:23;23.00;99.90
13472;DHT22;6808;49.444;11.034;2023-07-28T13:38:49;23.60;99.90
13472;DHT22;6808;49.444;11.034;2023-07-28T13:41:15;23.30;99.90
13472;DHT22;6808;49.444;11.034;2023-07-28T13:43:40;23.00;99.90
13472;DHT22;6808;49.444;11.034;2023-07-28T13:46:06;23.00;99.90
13472;DHT22;6808;49.444;11.034;2023-07-28T13:48:32;23.20;99.90
13472;DHT22;6808;49.444;11.034;2023-07-28T13:50:59;23.50;99.90
13472;DHT22;6808;49.444;11.034;2023-07-28T13:53:24;23.50;99.90
13472;DHT22;6808;49.444;11.034;2023-07-28T13:55:50;23.20;99.90
13472;DHT22;6808;49.444;11.034;2023-07-28T13:58:16;23.20;99.90
13472;DHT22;6808;49.444;11.034;2023-07-28T14:00:42;23.50;99.90
13472;DHT22;6808;49.444;11.034;2023-07-28T14:03:07;23.50;99.90
13472;DHT22;6808;49.444;11.034;2023-07-28T14:05:33;23.60;99.90
13472;DHT22;6808;49.444;11.034;2023-07-28T14:07:59;23.60;99.90
13472;DHT22;6808;49.444;11.034;2023-07-28T14:10:25;23.50;99.90
13472;DHT22;6808;49.444;11.034;2023-07-28T14:12:52;23.60;99.90
13472;DHT22;6808;49.444;11.034;2023-07-28T14:15:19;23.50;99.90
13472;DHT22;6808;49.444;11.034;2023-07-28T14:17:44;23.50;99.90
13472;DHT22;6808;49.444;11.034;2023-07-28T14:20:10;23.60;99.90
13472;DHT22;6808;49.444;11.034;2023-07-28T14:22:36;23.60;99.90
13472;DHT22;6808;49.444;11.034;2023-07-28T14:25:02;23.70;99.90
13472;DHT22;6808;49.444;11.034;2023-07-28T14:27:28;23.60;99.90
13472;DHT22;6808;49.444;11.034;2023-07-28T14:29:54;23.60;99.90
13472;DHT22;6808;49.444;11.034;2023-07-28T14:32:19;23.60;99.90
13472;DHT22;6808;49.444;11.034;2023-07-28T14:34:45;23.60;99.90
13472;DHT22;6808;49.444;11.034;2023-07-28T14:37:11;24.10;99.90
13472;DHT22;6808;49.444;11.034;2023-07-28T14:39:36;23.60;99.90
13472;DHT22;6808;49.444;11.034;2023-07-28T14:42:03;24.10;99.90
13472;DHT22;6808;49.444;11.034;2023-07-28T14:44:29;23.60;99.90
13472;DHT22;6808;49.444;11.034;2023-07-28T14:46:57;23.60;99.90
13472;DHT22;6808;49.444;11.034;2023-07-28T14:49:22;23.60;99.90
13472;DHT22;6808;49.444;11.034;2023-07-28T14:51:48;23.50;99.90
13472;DHT22;6808;49.444;11.034;2023-07-28T14:54:15;23.50;99.90
13472;DHT22;6808;49.444;11.034;2023-07-28T14:56:40;23.50;99.90
13472;DHT22;6808;49.444;11.034;2023-07-28T14:59:06;23.30;99.90
13472;DHT22;6808;49.444;11.034;2023-07-28T15:01:33;23.40;99.90
13472;DHT22;6808;49.444;11.034;2023-07-28T15:04:00;23.30;99.90
13472;DHT22;6808;49.444;11.034;2023-07-28T15:06:27;23.30;99.90
13472;DHT22;6808;49.444;11.034;2023-07-28T15:08:53;23.30;99.90
13472;DHT22;6808;49.444;11.034;2023-07-28T15:11:18;23.80;99.90
13472;DHT22;6808;49.444;11.034;2023-07-28T15:13:44;23.30;99.90
13472;DHT22;6808;49.444;11.034;2023-07-28T15:16:10;23.00;99.90
13472;DHT22;6808;49.444;11.034;2023-07-28T15:18:36;23.00;99.90
13472;DHT22;6808;49.444;11.034;2023-07-28T15:21:01;23.00;99.90
13472;DHT22;6808;49.444;11.034;2023-07-28T15:23:27;23.30;99.90
13472;DHT22;6808;49.444;11.034;2023-07-28T15:26:04;22.90;99.90
13472;DHT22;6808;49.444;11.034;2023-07-28T15:28:30;22.90;99.90
13472;DHT22;6808;49.444;11.034;2023-07-28T15:30:56;22.80;99.90
13472;DHT22;6808;49.444;11.034;2023-07-28T15:33:23;22.70;99.90
13472;DHT22;6808;49.444;11.034;2023-07-28T15:35:50;22.70;99.90
13472;DHT22;6808;49.444;11.034;2023-07-28T15:38:16;22.70;99.90